sensor_id;sensor_type;location;lat;lon;timestamp;pressure;altitude;pressure_sealevel;temperature;humidity
62418;BME280;48456;54.242;10.280;2023-01-25T00:00:46;103617.41;;;-1.11;100.00
62418;BME280;48456;54.242;10.280;2023-01-25T00:03:12;103609.09;;;-1.17;100.00
62418;BME280;48456;54.242;10.280;2023-01-25T00:05:39;103601.28;;;-1.17;100.00
62418;BME280;48456;54.242;10.280;2023-01-25T00:08:05;103606.59;;;-1.15;100.00
62418;BME280;48456;54.242;10.280;2023-01-25T00:10:31;103604.00;;;-1.15;100.00
62418;BME280;48456;54.242;10.280;2023-01-25T00:12:57;103608.59;;;-1.13;100.00
62418;BME280;48456;54.242;10.280;2023-01-25T00:15:24;103606.38;;;-1.08;100.00
62418;BME280;48456;54.242;10.280;2023-01-25T00:17:50;103599.75;;;-1.05;100.00
62418;BME280;48456;54.242;10.280;2023-01-25T00:20:16;103604.72;;;-1.08;100.00
62418;BME280;48456;54.242;10.280;2023-01-25T00:22:43;103591.16;;;-1.14;100.00
62418;BME280;48456;54.242;10.280;2023-01-25T00:25:09;103586.31;;;-1.20;100.00
62418;BME280;48456;54.242;10.280;2023-01-25T00:27:35;103584.78;;;-1.18;100.00
62418;BME280;48456;54.242;10.280;2023-01-25T00:30:02;103580.88;;;-1.23;100.00
62418;BME280;48456;54.242;10.280;2023-01-25T00:32:35;103577.78;;;-1.19;100.00
62418;BME280;48456;54.242;10.280;2023-01-25T00:35:02;103588.41;;;-1.15;100.00
62418;BME280;48456;54.242;10.280;2023-01-25T00:37:29;103577.41;;;-1.13;100.00
62418;BME280;48456;54.242;10.280;2023-01-25T00:40:00;103574.03;;;-1.12;100.00
62418;BME280;48456;54.242;10.280;2023-01-25T00:42:26;103574.03;;;-1.12;100.00
62418;BME280;48456;54.242;10.280;2023-01-25T00:44:53;103565.31;;;-1.12;100.00
62418;BME280;48456;54.242;10.280;2023-01-25T00:47:19;103559.84;;;-1.15;100.00
62418;BME280;48456;54.242;10.280;2023-01-25T00:49:46;103564.00;;;-1.18;100.00
62418;BME280;48456;54.242;10.280;2023-01-25T00:52:12;103563.72;;;-1.21;100.00
62418;BME280;48456;54.242;10.280;2023-01-25T00:54:39;103554.25;;;-1.20;100.00
62418;BME280;48456;54.242;10.280;2023-01-25T00:57:05;103551.53;;;-1.22;100.00
62418;BME280;48456;54.242;10.280;2023-01-25T00:59:32;103550.44;;;-1.24;100.00
62418;BME280;48456;54.242;10.280;2023-01-25T01:01:59;103545.81;;;-1.18;100.00
62418;BME280;48456;54.242;10.280;2023-01-25T01:04:25;103549.59;;;-1.14;100.00
62418;BME280;48456;54.242;10.280;2023-01-25T01:06:52;103543.88;;;-1.10;100.00
62418;BME280;48456;54.242;10.280;2023-01-25T01:09:19;103545.69;;;-1.09;100.00
62418;BME280;48456;54.242;10.280;2023-01-25T01:11:46;103550.16;;;-1.08;100.00
62418;BME280;48456;54.242;10.280;2023-01-25T01:14:12;103544.81;;;-1.09;100.00
62418;BME280;48456;54.242;10.280;2023-01-25T01:16:39;103550.66;;;-1.12;100.00
62418;BME280;48456;54.242;10.280;2023-01-25T01:19:05;103547.63;;;-1.16;100.00
62418;BME280;48456;54.242;10.280;2023-01-25T01:21:32;103548.41;;;-1.18;100.00
62418;BME280;48456;54.242;10.280;2023-01-25T01:23:58;103548.00;;;-1.22;100.00
62418;BME280;48456;54.242;10.280;2023-01-25T01:26:24;103536.94;;;-1.30;100.00
62418;BME280;48456;54.242;10.280;2023-01-25T01:28:51;103542.00;;;-1.32;100.00
62418;BME280;48456;54.242;10.280;2023-01-25T01:31:18;103525.63;;;-1.31;100.00
62418;BME280;48456;54.242;10.280;2023-01-25T01:33:51;103517.69;;;-1.32;100.00
62418;BME280;48456;54.242;10.280;2023-01-25T01:36:19;103517.44;;;-1.35;100.00
62418;BME280;48456;54.242;10.280;2023-01-25T01:38:46;103519.53;;;-1.31;100.00
62418;BME280;48456;54.242;10.280;2023-01-25T01:41:13;103524.09;;;-1.28;100.00
62418;BME280;48456;54.242;10.280;2023-01-25T01:43:39;103530.56;;;-1.34;100.00
62418;BME280;48456;54.242;10.280;2023-01-25T01:46:13;103524.16;;;-1.37;100.00
62418;BME280;48456;54.242;10.280;2023-01-25T01:51:18;103514.16;;;-1.43;100.00
62418;BME280;48456;54.242;10.280;2023-01-25T01:53:47;103520.25;;;-1.42;100.00
62418;BME280;48456;54.242;10.280;2023-01-25T01:56:15;103523.28;;;-1.38;100.00
62418;BME280;48456;54.242;10.280;2023-01-25T01:58:45;103518.97;;;-1.37;100.00
62418;BME280;48456;54.242;10.280;2023-01-25T02:01:12;103522.06;;;-1.41;100.00
62418;BME280;48456;54.242;10.280;2023-01-25T02:03:38;103517.53;;;-1.44;100.00
62418;BME280;48456;54.242;10.280;2023-01-25T02:08:33;103519.72;;;-1.49;100.00
62418;BME280;48456;54.242;10.280;2023-01-25T02:11:06;103520.63;;;-1.48;100.00
62418;BME280;48456;54.242;10.280;2023-01-25T02:13:33;103516.63;;;-1.45;100.00
62418;BME280;48456;54.242;10.280;2023-01-25T02:16:00;103514.66;;;-1.47;100.00
62418;BME280;48456;54.242;10.280;2023-01-25T02:18:26;103512.19;;;-1.46;100.00
62418;BME280;48456;54.242;10.280;2023-01-25T02:20:54;103510.81;;;-1.42;100.00
62418;BME280;48456;54.242;10.280;2023-01-25T02:23:24;103514.56;;;-1.38;100.00
62418;BME280;48456;54.242;10.280;2023-01-25T02:25:53;103515.75;;;-1.35;100.00
62418;BME280;48456;54.242;10.280;2023-01-25T02:28:24;103515.63;;;-1.36;100.00
62418;BME280;48456;54.242;10.280;2023-01-25T02:30:52;103509.78;;;-1.34;100.00
62418;BME280;48456;54.242;10.280;2023-01-25T02:33:21;103505.63;;;-1.32;100.00
62418;BME280;48456;54.242;10.280;2023-01-25T02:35:48;103517.84;;;-1.31;100.00
62418;BME280;48456;54.242;10.280;2023-01-25T02:38:19;103505.91;;;-1.28;100.00
62418;BME280;48456;54.242;10.280;2023-01-25T02:40:53;103499.78;;;-1.29;100.00
62418;BME280;48456;54.242;10.280;2023-01-25T02:43:22;103507.31;;;-1.32;100.00
62418;BME280;48456;54.242;10.280;2023-01-25T02:45:53;103506.41;;;-1.33;100.00
62418;BME280;48456;54.242;10.280;2023-01-25T02:48:23;103495.34;;;-1.40;100.00
62418;BME280;48456;54.242;10.280;2023-01-25T02:50:49;103495.34;;;-1.40;100.00
62418;BME280;48456;54.242;10.280;2023-01-25T02:53:15;103499.78;;;-1.39;100.00
62418;BME280;48456;54.242;10.280;2023-01-25T02:55:42;103494.16;;;-1.44;100.00
62418;BME280;48456;54.242;10.280;2023-01-25T02:58:08;103489.31;;;-1.50;100.00
62418;BME280;48456;54.242;10.280;2023-01-25T03:00:34;103483.59;;;-1.56;100.00
62418;BME280;48456;54.242;10.280;2023-01-25T03:03:01;103481.16;;;-1.54;100.00
62418;BME280;48456;54.242;10.280;2023-01-25T03:05:27;103481.28;;;-1.53;100.00
62418;BME280;48456;54.242;10.280;2023-01-25T03:07:53;103479.59;;;-1.52;100.00
62418;BME280;48456;54.242;10.280;2023-01-25T03:10:19;103469.47;;;-1.49;100.00
62418;BME280;48456;54.242;10.280;2023-01-25T03:12:46;103470.78;;;-1.44;100.00
62418;BME280;48456;54.242;10.280;2023-01-25T03:15:12;103472.22;;;-1.48;100.00
62418;BME280;48456;54.242;10.280;2023-01-25T03:17:38;103468.97;;;-1.45;100.00
62418;BME280;48456;54.242;10.280;2023-01-25T03:20:05;103471.00;;;-1.51;100.00
62418;BME280;48456;54.242;10.280;2023-01-25T03:22:31;103464.28;;;-1.49;100.00
62418;BME280;48456;54.242;10.280;2023-01-25T03:24:58;103474.53;;;-1.51;100.00
62418;BME280;48456;54.242;10.280;2023-01-25T03:27:24;103468.56;;;-1.50;100.00
62418;BME280;48456;54.242;10.280;2023-01-25T03:29:50;103458.81;;;-1.52;100.00
62418;BME280;48456;54.242;10.280;2023-01-25T03:32:16;103460.38;;;-1.54;100.00
62418;BME280;48456;54.242;10.280;2023-01-25T03:34:43;103470.47;;;-1.58;100.00
62418;BME280;48456;54.242;10.280;2023-01-25T03:37:09;103461.66;;;-1.60;100.00
62418;BME280;48456;54.242;10.280;2023-01-25T03:39:36;103468.25;;;-1.63;100.00
62418;BME280;48456;54.242;10.280;2023-01-25T03:42:02;103462.91;;;-1.65;100.00
62418;BME280;48456;54.242;10.280;2023-01-25T03:44:28;103457.88;;;-1.63;100.00
62418;BME280;48456;54.242;10.280;2023-01-25T03:46:55;103451.63;;;-1.65;100.00
62418;BME280;48456;54.242;10.280;2023-01-25T03:49:21;103448.75;;;-1.68;100.00
62418;BME280;48456;54.242;10.280;2023-01-25T03:51:47;103448.47;;;-1.72;100.00
62418;BME280;48456;54.242;10.280;2023-01-25T03:54:14;103435.88;;;-1.77;100.00
62418;BME280;48456;54.242;10.280;2023-01-25T03:56:40;103432.53;;;-1.76;100.00
62418;BME280;48456;54.242;10.280;2023-01-25T03:59:06;103429.16;;;-1.75;100.00
62418;BME280;48456;54.242;10.280;2023-01-25T04:01:33;103425.13;;;-1.72;100.00
62418;BME280;48456;54.242;10.280;2023-01-25T04:03:59;103413.97;;;-1.71;100.00
62418;BME280;48456;54.242;10.280;2023-01-25T04:06:25;103406.66;;;-1.75;100.00
62418;BME280;48456;54.242;10.280;2023-01-25T04:08:51;103403.34;;;-1.74;100.00
62418;BME280;48456;54.242;10.280;2023-01-25T04:11:18;103393.31;;;-1.79;100.00
62418;BME280;48456;54.242;10.280;2023-01-25T04:13:44;103387.97;;;-1.81;100.00
62418;BME280;48456;54.242;10.280;2023-01-25T04:16:10;103381.75;;;-1.83;100.00
62418;BME280;48456;54.242;10.280;2023-01-25T04:18:37;103378.25;;;-1.84;100.00
62418;BME280;48456;54.242;10.280;2023-01-25T04:21:04;103384.75;;;-1.78;100.00
62418;BME280;48456;54.242;10.280;2023-01-25T04:23:30;103391.75;;;-1.77;100.00
62418;BME280;48456;54.242;10.280;2023-01-25T04:26:03;103375.16;;;-1.79;100.00
62418;BME280;48456;54.242;10.280;2023-01-25T04:28:31;103382.78;;;-1.81;100.00
62418;BME280;48456;54.242;10.280;2023-01-25T04:30:58;103375.78;;;-1.82;100.00
62418;BME280;48456;54.242;10.280;2023-01-25T04:33:24;103383.28;;;-1.85;100.00
62418;BME280;48456;54.242;10.280;2023-01-25T04:35:51;103383.56;;;-1.82;100.00
62418;BME280;48456;54.242;10.280;2023-01-25T04:38:17;103382.66;;;-1.83;100.00
62418;BME280;48456;54.242;10.280;2023-01-25T04:40:44;103383.22;;;-1.76;100.00
62418;BME280;48456;54.242;10.280;2023-01-25T04:43:14;103383.47;;;-1.73;100.00
62418;BME280;48456;54.242;10.280;2023-01-25T04:45:40;103378.78;;;-1.77;100.00
62418;BME280;48456;54.242;10.280;2023-01-25T04:48:08;103377.88;;;-1.78;100.00
62418;BME280;48456;54.242;10.280;2023-01-25T04:50:35;103367.50;;;-1.78;100.00
62418;BME280;48456;54.242;10.280;2023-01-25T04:53:02;103369.53;;;-1.84;100.00
62418;BME280;48456;54.242;10.280;2023-01-25T04:55:28;103359.91;;;-1.96;100.00
62418;BME280;48456;54.242;10.280;2023-01-25T04:57:58;103368.19;;;-2.00;100.00
62418;BME280;48456;54.242;10.280;2023-01-25T05:00:25;103378.19;;;-1.94;100.00
62418;BME280;48456;54.242;10.280;2023-01-25T05:02:51;103381.19;;;-1.89;100.00
62418;BME280;48456;54.242;10.280;2023-01-25T05:05:17;103370.31;;;-1.85;100.00
62418;BME280;48456;54.242;10.280;2023-01-25T05:07:43;103371.75;;;-1.89;100.00
62418;BME280;48456;54.242;10.280;2023-01-25T05:10:10;103369.91;;;-1.90;100.00
62418;BME280;48456;54.242;10.280;2023-01-25T05:12:36;103368.09;;;-1.91;100.00
62418;BME280;48456;54.242;10.280;2023-01-25T05:15:03;103365.63;;;-1.89;100.00
62418;BME280;48456;54.242;10.280;2023-01-25T05:17:30;103358.34;;;-1.93;100.00
62418;BME280;48456;54.242;10.280;2023-01-25T05:19:56;103357.31;;;-1.96;100.00
62418;BME280;48456;54.242;10.280;2023-01-25T05:22:22;103361.44;;;-1.98;100.00
62418;BME280;48456;54.242;10.280;2023-01-25T05:24:49;103359.34;;;-2.02;100.00
62418;BME280;48456;54.242;10.280;2023-01-25T05:27:16;103358.47;;;-2.02;100.00
62418;BME280;48456;54.242;10.280;2023-01-25T05:29:43;103361.06;;;-2.02;100.00
62418;BME280;48456;54.242;10.280;2023-01-25T05:34:36;103356.47;;;-2.05;100.00
62418;BME280;48456;54.242;10.280;2023-01-25T05:37:03;103352.84;;;-2.07;100.00
62418;BME280;48456;54.242;10.280;2023-01-25T05:39:29;103356.09;;;-2.10;100.00
62418;BME280;48456;54.242;10.280;2023-01-25T05:41:56;103354.28;;;-2.11;100.00
62418;BME280;48456;54.242;10.280;2023-01-25T05:44:22;103349.19;;;-2.09;100.00
62418;BME280;48456;54.242;10.280;2023-01-25T05:46:49;103344.78;;;-2.10;100.00
62418;BME280;48456;54.242;10.280;2023-01-25T05:49:15;103347.38;;;-2.10;100.00
62418;BME280;48456;54.242;10.280;2023-01-25T05:51:41;103342.41;;;-2.17;100.00
62418;BME280;48456;54.242;10.280;2023-01-25T05:54:11;103343.84;;;-2.21;100.00
62418;BME280;48456;54.242;10.280;2023-01-25T05:56:38;103334.63;;;-2.17;100.00
62418;BME280;48456;54.242;10.280;2023-01-25T05:59:04;103335.06;;;-2.13;100.00
62418;BME280;48456;54.242;10.280;2023-01-25T06:01:31;103346.34;;;-2.12;100.00
62418;BME280;48456;54.242;10.280;2023-01-25T06:03:57;103348.31;;;-2.10;100.00
62418;BME280;48456;54.242;10.280;2023-01-25T06:06:24;103353.88;;;-2.05;100.00
62418;BME280;48456;54.242;10.280;2023-01-25T06:08:50;103345.22;;;-2.05;100.00
62418;BME280;48456;54.242;10.280;2023-01-25T06:11:18;103342.63;;;-2.05;100.00
62418;BME280;48456;54.242;10.280;2023-01-25T06:13:45;103336.13;;;-2.11;100.00
62418;BME280;48456;54.242;10.280;2023-01-25T06:16:11;103338.56;;;-2.12;100.00
62418;BME280;48456;54.242;10.280;2023-01-25T06:18:38;103342.41;;;-2.17;100.00
62418;BME280;48456;54.242;10.280;2023-01-25T06:21:04;103346.72;;;-2.18;100.00
62418;BME280;48456;54.242;10.280;2023-01-25T06:23:31;103334.03;;;-2.15;100.00
62418;BME280;48456;54.242;10.280;2023-01-25T06:25:58;103338.44;;;-2.14;100.00
62418;BME280;48456;54.242;10.280;2023-01-25T06:28:25;103331.03;;;-2.09;100.00
62418;BME280;48456;54.242;10.280;2023-01-25T06:30:51;103324.97;;;-2.10;100.00
62418;BME280;48456;54.242;10.280;2023-01-25T06:33:18;103326.13;;;-2.06;100.00
62418;BME280;48456;54.242;10.280;2023-01-25T06:35:44;103323.03;;;-2.02;100.00
62418;BME280;48456;54.242;10.280;2023-01-25T06:38:10;103326.41;;;-2.03;100.00
62418;BME280;48456;54.242;10.280;2023-01-25T06:40:37;103333.03;;;-2.06;100.00
62418;BME280;48456;54.242;10.280;2023-01-25T06:43:07;103332.75;;;-2.10;100.00
62418;BME280;48456;54.242;10.280;2023-01-25T06:45:33;103331.03;;;-2.09;100.00
62418;BME280;48456;54.242;10.280;2023-01-25T06:48:00;103326.84;;;-2.17;100.00
62418;BME280;48456;54.242;10.280;2023-01-25T06:50:26;103320.34;;;-2.23;100.00
62418;BME280;48456;54.242;10.280;2023-01-25T06:52:53;103322.00;;;-2.33;100.00
62418;BME280;48456;54.242;10.280;2023-01-25T06:55:19;103326.41;;;-2.32;100.00
62418;BME280;48456;54.242;10.280;2023-01-25T06:57:46;103317.16;;;-2.39;100.00
62418;BME280;48456;54.242;10.280;2023-01-25T07:00:12;103318.88;;;-2.40;100.00
62418;BME280;48456;54.242;10.280;2023-01-25T07:02:39;103311.84;;;-2.41;100.00
62418;BME280;48456;54.242;10.280;2023-01-25T07:05:05;103302.97;;;-2.34;100.00
62418;BME280;48456;54.242;10.280;2023-01-25T07:07:32;103302.31;;;-2.31;100.00
62418;BME280;48456;54.242;10.280;2023-01-25T07:09:59;103306.44;;;-2.33;100.00
62418;BME280;48456;54.242;10.280;2023-01-25T07:12:27;103305.03;;;-2.30;100.00
62418;BME280;48456;54.242;10.280;2023-01-25T07:14:53;103306.72;;;-2.30;100.00
62418;BME280;48456;54.242;10.280;2023-01-25T07:17:19;103299.22;;;-2.27;100.00
62418;BME280;48456;54.242;10.280;2023-01-25T07:19:46;103297.00;;;-2.33;100.00
62418;BME280;48456;54.242;10.280;2023-01-25T07:22:12;103288.66;;;-2.39;100.00
62418;BME280;48456;54.242;10.280;2023-01-25T07:24:39;103280.66;;;-2.32;100.00
62418;BME280;48456;54.242;10.280;2023-01-25T07:27:05;103289.28;;;-2.42;100.00
62418;BME280;48456;54.242;10.280;2023-01-25T07:29:31;103283.84;;;-2.45;100.00
62418;BME280;48456;54.242;10.280;2023-01-25T07:31:57;103284.59;;;-2.46;100.00
62418;BME280;48456;54.242;10.280;2023-01-25T07:34:24;103285.38;;;-2.47;100.00
62418;BME280;48456;54.242;10.280;2023-01-25T07:36:50;103278.53;;;-2.46;100.00
62418;BME280;48456;54.242;10.280;2023-01-25T07:39:17;103273.47;;;-2.45;100.00
62418;BME280;48456;54.242;10.280;2023-01-25T07:41:43;103272.69;;;-2.44;100.00
62418;BME280;48456;54.242;10.280;2023-01-25T07:44:09;103270.50;;;-2.39;100.00
62418;BME280;48456;54.242;10.280;2023-01-25T07:46:36;103275.59;;;-2.30;100.00
62418;BME280;48456;54.242;10.280;2023-01-25T07:49:02;103271.09;;;-2.23;100.00
62418;BME280;48456;54.242;10.280;2023-01-25T07:51:28;103263.44;;;-2.21;100.00
62418;BME280;48456;54.242;10.280;2023-01-25T07:53:57;103265.00;;;-2.23;100.00
62418;BME280;48456;54.242;10.280;2023-01-25T07:56:27;103263.94;;;-2.25;100.00
62418;BME280;48456;54.242;10.280;2023-01-25T07:58:54;103257.59;;;-2.29;100.00
62418;BME280;48456;54.242;10.280;2023-01-25T08:01:22;103268.47;;;-2.33;100.00
62418;BME280;48456;54.242;10.280;2023-01-25T08:03:48;103265.88;;;-2.33;100.00
62418;BME280;48456;54.242;10.280;2023-01-25T08:06:15;103268.19;;;-2.36;100.00
62418;BME280;48456;54.242;10.280;2023-01-25T08:08:45;103261.34;;;-2.36;100.00
62418;BME280;48456;54.242;10.280;2023-01-25T08:11:13;103247.81;;;-2.42;100.00
62418;BME280;48456;54.242;10.280;2023-01-25T08:13:40;103256.78;;;-2.38;100.00
62418;BME280;48456;54.242;10.280;2023-01-25T08:16:11;103260.13;;;-2.39;100.00
62418;BME280;48456;54.242;10.280;2023-01-25T08:18:38;103257.03;;;-2.35;100.00
62418;BME280;48456;54.242;10.280;2023-01-25T08:21:04;103256.53;;;-2.31;100.00
62418;BME280;48456;54.242;10.280;2023-01-25T08:23:31;103266.72;;;-2.43;100.00
62418;BME280;48456;54.242;10.280;2023-01-25T08:26:04;103257.00;;;-2.45;100.00
62418;BME280;48456;54.242;10.280;2023-01-25T08:28:30;103248.72;;;-2.41;100.00
62418;BME280;48456;54.242;10.280;2023-01-25T08:31:16;103239.81;;;-2.35;100.00
62418;BME280;48456;54.242;10.280;2023-01-25T08:33:47;103246.66;;;-2.35;100.00
62418;BME280;48456;54.242;10.280;2023-01-25T08:36:14;103236.94;;;-2.38;100.00
62418;BME280;48456;54.242;10.280;2023-01-25T08:38:41;103241.59;;;-2.44;100.00
62418;BME280;48456;54.242;10.280;2023-01-25T08:41:09;103233.81;;;-2.44;100.00
62418;BME280;48456;54.242;10.280;2023-01-25T08:43:36;103234.84;;;-2.42;100.00
62418;BME280;48456;54.242;10.280;2023-01-25T08:46:02;103228.28;;;-2.38;100.00
62418;BME280;48456;54.242;10.280;2023-01-25T08:48:29;103220.75;;;-2.35;100.00
62418;BME280;48456;54.242;10.280;2023-01-25T08:50:55;103217.13;;;-2.37;100.00
62418;BME280;48456;54.242;10.280;2023-01-25T08:53:22;103210.50;;;-2.33;100.00
62418;BME280;48456;54.242;10.280;2023-01-25T08:55:48;103196.50;;;-2.36;100.00
62418;BME280;48456;54.242;10.280;2023-01-25T08:58:15;103189.88;;;-2.42;100.00
62418;BME280;48456;54.242;10.280;2023-01-25T09:00:44;103202.34;;;-2.38;100.00
62418;BME280;48456;54.242;10.280;2023-01-25T09:03:11;103202.84;;;-2.42;100.00
62418;BME280;48456;54.242;10.280;2023-01-25T09:05:38;103195.31;;;-2.39;100.00
62418;BME280;48456;54.242;10.280;2023-01-25T09:08:05;103192.72;;;-2.39;100.00
62418;BME280;48456;54.242;10.280;2023-01-25T09:10:33;103191.97;;;-2.38;100.00
62418;BME280;48456;54.242;10.280;2023-01-25T09:12:59;103193.22;;;-2.43;100.00
62418;BME280;48456;54.242;10.280;2023-01-25T09:15:26;103191.56;;;-2.43;100.00
62418;BME280;48456;54.242;10.280;2023-01-25T09:17:52;103187.66;;;-2.48;100.00
62418;BME280;48456;54.242;10.280;2023-01-25T09:20:19;103187.81;;;-2.46;100.00
62418;BME280;48456;54.242;10.280;2023-01-25T09:22:46;103185.78;;;-2.30;100.00
62418;BME280;48456;54.242;10.280;2023-01-25T09:25:13;103167.88;;;-2.27;100.00
62418;BME280;48456;54.242;10.280;2023-01-25T09:27:39;103168.94;;;-2.14;100.00
62418;BME280;48456;54.242;10.280;2023-01-25T09:30:07;103165.78;;;-2.31;100.00
62418;BME280;48456;54.242;10.280;2023-01-25T09:32:42;103168.50;;;-2.29;100.00
62418;BME280;48456;54.242;10.280;2023-01-25T09:35:08;103169.03;;;-2.33;100.00
62418;BME280;48456;54.242;10.280;2023-01-25T09:37:34;103162.31;;;-2.31;100.00
62418;BME280;48456;54.242;10.280;2023-01-25T09:40:01;103160.75;;;-2.29;100.00
62418;BME280;48456;54.242;10.280;2023-01-25T09:42:38;103158.41;;;-2.26;100.00
62418;BME280;48456;54.242;10.280;2023-01-25T09:48:30;103165.41;;;-2.36;100.00
62418;BME280;48456;54.242;10.280;2023-01-25T09:53:30;103159.41;;;-2.45;100.00
62418;BME280;48456;54.242;10.280;2023-01-25T09:56:44;103161.88;;;-2.46;100.00
62418;BME280;48456;54.242;10.280;2023-01-25T09:58:45;103149.94;;;-2.44;100.00
62418;BME280;48456;54.242;10.280;2023-01-25T10:01:19;103144.63;;;-2.46;100.00
62418;BME280;48456;54.242;10.280;2023-01-25T10:04:04;103135.31;;;-2.44;100.00
62418;BME280;48456;54.242;10.280;2023-01-25T10:06:35;103143.47;;;-2.50;100.00
62418;BME280;48456;54.242;10.280;2023-01-25T10:09:05;103143.19;;;-2.53;100.00
62418;BME280;48456;54.242;10.280;2023-01-25T10:11:36;103139.06;;;-2.51;100.00
62418;BME280;48456;54.242;10.280;2023-01-25T10:14:06;103126.84;;;-2.52;100.00
62418;BME280;48456;54.242;10.280;2023-01-25T10:16:43;103127.78;;;-2.51;100.00
62418;BME280;48456;54.242;10.280;2023-01-25T10:24:42;103103.88;;;-2.68;100.00
62418;BME280;48456;54.242;10.280;2023-01-25T10:27:24;103097.38;;;-2.73;100.00
62418;BME280;48456;54.242;10.280;2023-01-25T10:29:55;103097.91;;;-2.77;100.00
62418;BME280;48456;54.242;10.280;2023-01-25T10:32:26;103094.25;;;-2.79;100.00
62418;BME280;48456;54.242;10.280;2023-01-25T10:34:53;103086.38;;;-2.81;100.00
62418;BME280;48456;54.242;10.280;2023-01-25T10:37:26;103081.06;;;-2.72;100.00
62418;BME280;48456;54.242;10.280;2023-01-25T10:42:40;103080.69;;;-2.77;100.00
62418;BME280;48456;54.242;10.280;2023-01-25T10:45:10;103080.69;;;-2.77;100.00
62418;BME280;48456;54.242;10.280;2023-01-25T10:47:37;103076.66;;;-2.73;100.00
62418;BME280;48456;54.242;10.280;2023-01-25T10:50:07;103075.59;;;-2.75;100.00
62418;BME280;48456;54.242;10.280;2023-01-25T10:52:33;103066.66;;;-2.79;100.00
62418;BME280;48456;54.242;10.280;2023-01-25T10:57:32;103063.72;;;-2.73;100.00
62418;BME280;48456;54.242;10.280;2023-01-25T11:00:01;103060.34;;;-2.72;100.00
62418;BME280;48456;54.242;10.280;2023-01-25T11:02:46;103061.25;;;-2.71;100.00
62418;BME280;48456;54.242;10.280;2023-01-25T11:07:58;103048.91;;;-2.84;100.00
62418;BME280;48456;54.242;10.280;2023-01-25T11:10:28;103045.28;;;-2.87;100.00
62418;BME280;48456;54.242;10.280;2023-01-25T11:15:53;103032.34;;;-2.87;100.00
62418;BME280;48456;54.242;10.280;2023-01-25T11:18:22;103034.28;;;-2.84;100.00
62418;BME280;48456;54.242;10.280;2023-01-25T11:21:11;103033.41;;;-2.74;100.00
62418;BME280;48456;54.242;10.280;2023-01-25T11:23:35;103023.69;;;-2.77;100.00
62418;BME280;48456;54.242;10.280;2023-01-25T11:26:15;103022.91;;;-2.76;100.00
62418;BME280;48456;54.242;10.280;2023-01-25T11:28:41;103016.06;;;-2.65;100.00
62418;BME280;48456;54.242;10.280;2023-01-25T11:31:10;103009.94;;;-2.65;100.00
62418;BME280;48456;54.242;10.280;2023-01-25T11:33:37;103001.16;;;-2.67;100.00
62418;BME280;48456;54.242;10.280;2023-01-25T11:36:21;102992.47;;;-2.68;100.00
62418;BME280;48456;54.242;10.280;2023-01-25T11:38:58;102986.13;;;-2.71;100.00
62418;BME280;48456;54.242;10.280;2023-01-25T11:41:36;102986.75;;;-2.64;100.00
62418;BME280;48456;54.242;10.280;2023-01-25T11:46:58;102971.47;;;-2.61;100.00
62418;BME280;48456;54.242;10.280;2023-01-25T11:49:33;102973.44;;;-2.58;100.00
62418;BME280;48456;54.242;10.280;2023-01-25T11:54:53;102951.91;;;-2.57;100.00
62418;BME280;48456;54.242;10.280;2023-01-25T12:00:07;102931.16;;;-2.78;100.00
62418;BME280;48456;54.242;10.280;2023-01-25T12:05:15;102920.69;;;-2.69;100.00
62418;BME280;48456;54.242;10.280;2023-01-25T12:31:39;102868.44;;;-2.53;100.00
62418;BME280;48456;54.242;10.280;2023-01-25T12:34:14;102866.13;;;-2.50;100.00
62418;BME280;48456;54.242;10.280;2023-01-25T12:36:45;102856.78;;;-2.48;100.00
62418;BME280;48456;54.242;10.280;2023-01-25T12:49:22;102826.19;;;-2.41;100.00
62418;BME280;48456;54.242;10.280;2023-01-25T12:51:51;102820.50;;;-2.48;100.00
62418;BME280;48456;54.242;10.280;2023-01-25T12:54:22;102825.16;;;-2.43;100.00
62418;BME280;48456;54.242;10.280;2023-01-25T12:59:26;102812.19;;;-2.43;100.00
62418;BME280;48456;54.242;10.280;2023-01-25T13:02:04;102801.94;;;-2.42;100.00
62418;BME280;48456;54.242;10.280;2023-01-25T13:04:39;102794.47;;;-2.49;100.00
62418;BME280;48456;54.242;10.280;2023-01-25T13:10:32;102782.94;;;-2.53;100.00
62418;BME280;48456;54.242;10.280;2023-01-25T13:12:51;102791.09;;;-2.48;100.00
62418;BME280;48456;54.242;10.280;2023-01-25T13:15:34;102782.28;;;-2.50;100.00
62418;BME280;48456;54.242;10.280;2023-01-25T13:18:06;102769.09;;;-2.53;100.00
62418;BME280;48456;54.242;10.280;2023-01-25T13:20:48;102770.75;;;-2.54;100.00
62418;BME280;48456;54.242;10.280;2023-01-25T13:23:31;102766.59;;;-2.52;100.00
62418;BME280;48456;54.242;10.280;2023-01-25T13:26:35;102763.38;;;-2.49;100.00
62418;BME280;48456;54.242;10.280;2023-01-25T13:28:54;102762.31;;;-2.51;100.00
62418;BME280;48456;54.242;10.280;2023-01-25T13:35:00;102746.63;;;-2.42;100.00
62418;BME280;48456;54.242;10.280;2023-01-25T13:37:15;102753.34;;;-2.34;100.00
62418;BME280;48456;54.242;10.280;2023-01-25T13:39:43;102755.00;;;-2.35;100.00
62418;BME280;48456;54.242;10.280;2023-01-25T13:44:42;102752.88;;;-2.51;100.00
62418;BME280;48456;54.242;10.280;2023-01-25T13:47:13;102747.44;;;-2.54;100.00
62418;BME280;48456;54.242;10.280;2023-01-25T13:49:43;102748.44;;;-2.52;100.00
62418;BME280;48456;54.242;10.280;2023-01-25T13:52:13;102745.31;;;-2.48;100.00
62418;BME280;48456;54.242;10.280;2023-01-25T13:54:44;102738.09;;;-2.52;100.00
62418;BME280;48456;54.242;10.280;2023-01-25T13:57:21;102727.09;;;-2.49;100.00
62418;BME280;48456;54.242;10.280;2023-01-25T13:59:49;102729.56;;;-2.51;100.00
62418;BME280;48456;54.242;10.280;2023-01-25T14:02:30;102726.84;;;-2.52;100.00